createdAt,value
2022-09-10T00:00:15.838Z,83.50
2022-09-10T00:02:46.495Z,83.70
2022-09-10T00:05:15.136Z,83.80
2022-09-10T00:07:43.595Z,83.80
2022-09-10T00:10:13.180Z,83.70
2022-09-10T00:12:42.511Z,83.50
2022-09-10T00:15:11.567Z,83.40
2022-09-10T00:17:40.401Z,83.40
2022-09-10T00:20:11.216Z,83.50
2022-09-10T00:22:39.713Z,83.50
2022-09-10T00:25:08.890Z,83.70
2022-09-10T00:27:37.436Z,83.70
2022-09-10T00:30:07.031Z,83.80
2022-09-10T00:32:35.781Z,83.80
2022-09-10T00:35:04.418Z,83.90
2022-09-10T00:37:34.761Z,84.00
2022-09-10T00:40:03.993Z,84.20
2022-09-10T00:42:32.544Z,84.30
2022-09-10T00:45:03.303Z,84.40
2022-09-10T00:47:34.720Z,84.50
2022-09-10T00:50:05.758Z,84.50
2022-09-10T00:52:39.668Z,84.80
2022-09-10T00:55:09.374Z,84.80
2022-09-10T00:57:38.683Z,85.20
2022-09-10T01:00:08.961Z,85.30
2022-09-10T01:02:37.540Z,85.30
2022-09-10T01:05:07.325Z,85.30
2022-09-10T01:07:37.646Z,85.30
2022-09-10T01:10:08.216Z,86.10
2022-09-10T01:13:00.981Z,85.60
2022-09-10T01:15:32.338Z,85.60
2022-09-10T01:18:09.557Z,85.70
2022-09-10T01:20:47.533Z,86.00
2022-09-10T01:23:26.550Z,86.30
2022-09-10T01:26:00.192Z,86.30
2022-09-10T01:28:35.066Z,86.00
2022-09-10T01:31:06.766Z,86.00
2022-09-10T01:33:57.412Z,86.00
2022-09-10T01:36:27.055Z,86.10
2022-09-10T01:38:55.753Z,86.10
2022-09-10T01:41:28.368Z,86.30
2022-09-10T01:43:58.576Z,86.60
2022-09-10T01:46:32.564Z,86.70
2022-09-10T01:49:22.331Z,87.00
2022-09-10T01:52:06.164Z,87.10
2022-09-10T01:54:41.152Z,87.20
2022-09-10T01:57:14.680Z,87.30
2022-09-10T01:59:51.851Z,87.30
2022-09-10T02:02:23.647Z,87.30
2022-09-10T02:04:52.879Z,87.30
2022-09-10T02:07:24.037Z,87.20
2022-09-10T02:09:55.060Z,87.20
2022-09-10T02:12:42.471Z,87.20
2022-09-10T02:15:28.920Z,87.00
2022-09-10T02:18:16.045Z,87.00
2022-09-10T02:20:45.546Z,86.90
2022-09-10T02:23:16.640Z,86.90
2022-09-10T02:25:46.125Z,86.80
2022-09-10T02:28:15.208Z,86.80
2022-09-10T02:30:45.204Z,86.80
2022-09-10T02:33:16.381Z,86.90
2022-09-10T02:35:45.092Z,87.00
2022-09-10T02:38:13.648Z,86.90
2022-09-10T02:40:43.332Z,87.00
2022-09-10T02:43:11.945Z,87.00
2022-09-10T02:45:41.332Z,87.10
2022-09-10T02:48:11.338Z,87.20
2022-09-10T02:50:40.498Z,87.90
2022-09-10T02:53:09.001Z,87.40
2022-09-10T02:55:38.200Z,87.40
2022-09-10T02:58:07.344Z,87.40
2022-09-10T03:00:35.879Z,87.50
2022-09-10T03:03:04.441Z,87.50
2022-09-10T03:05:38.563Z,87.60
2022-09-10T03:08:07.145Z,87.60
2022-09-10T03:10:37.323Z,87.70
2022-09-10T03:13:24.495Z,87.90
2022-09-10T03:15:53.078Z,87.80
2022-09-10T03:18:22.966Z,88.50
2022-09-10T03:20:53.267Z,87.90
2022-09-10T03:23:21.757Z,88.70
2022-09-10T03:25:50.261Z,88.00
2022-09-10T03:28:25.161Z,88.10
2022-09-10T03:30:54.051Z,88.20
2022-09-10T03:33:22.786Z,88.20
2022-09-10T03:35:54.416Z,88.30
2022-09-10T03:38:25.365Z,88.30
2022-09-10T03:40:54.486Z,88.30
2022-09-10T03:43:23.341Z,88.50
2022-09-10T03:45:52.402Z,88.50
2022-09-10T03:48:21.949Z,88.70
2022-09-10T03:50:51.109Z,88.70
2022-09-10T03:53:22.030Z,88.90
2022-09-10T03:55:52.066Z,88.90
2022-09-10T03:58:20.771Z,88.90
2022-09-10T04:00:49.369Z,88.80
2022-09-10T04:03:20.430Z,88.60
2022-09-10T04:05:50.770Z,88.40
2022-09-10T04:08:22.313Z,88.20
2022-09-10T04:10:52.453Z,88.10
2022-09-10T04:13:21.140Z,88.10
2022-09-10T04:15:49.674Z,88.10
2022-09-10T04:18:18.412Z,88.00
2022-09-10T04:20:48.819Z,88.00
2022-09-10T04:23:17.847Z,88.10
2022-09-10T04:25:49.630Z,88.10
2022-09-10T04:28:18.448Z,88.00
2022-09-10T04:30:49.828Z,88.10
2022-09-10T04:33:36.742Z,88.30
2022-09-10T04:36:06.351Z,88.20
2022-09-10T04:38:40.744Z,88.20
2022-09-10T04:41:11.417Z,88.20
2022-09-10T04:43:40.992Z,88.20
2022-09-10T04:46:09.750Z,88.30
2022-09-10T04:48:41.141Z,88.30
2022-09-10T04:51:16.549Z,88.40
2022-09-10T04:53:47.794Z,88.70
2022-09-10T04:56:18.329Z,88.80
2022-09-10T04:58:47.582Z,88.90
2022-09-10T05:01:16.458Z,89.00
2022-09-10T05:03:46.915Z,89.30
2022-09-10T05:06:15.936Z,89.30
2022-09-10T05:08:47.443Z,89.40
2022-09-10T05:11:19.838Z,89.50
2022-09-10T05:13:49.145Z,89.50
2022-09-10T05:16:21.532Z,89.40
2022-09-10T05:18:50.280Z,89.50
2022-09-10T05:21:19.553Z,89.50
2022-09-10T05:23:48.291Z,89.40
2022-09-10T05:26:18.242Z,89.40
2022-09-10T05:28:47.828Z,89.30
2022-09-10T05:31:18.156Z,89.30
2022-09-10T05:34:05.305Z,89.00
2022-09-10T05:36:34.015Z,89.00
2022-09-10T05:39:03.362Z,88.90
2022-09-10T05:41:37.906Z,88.80
2022-09-10T05:44:06.542Z,88.70
2022-09-10T05:46:53.860Z,88.30
2022-09-10T05:49:22.843Z,88.00
2022-09-10T05:51:52.216Z,87.80
2022-09-10T05:54:21.197Z,87.60
2022-09-10T05:56:52.208Z,87.60
2022-09-10T05:59:21.723Z,87.50
2022-09-10T06:01:53.262Z,87.40
2022-09-10T06:04:24.403Z,87.10
2022-09-10T06:06:53.636Z,86.90
2022-09-10T06:09:22.609Z,86.70
2022-09-10T06:12:03.031Z,86.50
2022-09-10T06:14:31.961Z,86.10
2022-09-10T06:17:00.740Z,85.80
2022-09-10T06:19:31.280Z,85.30
2022-09-10T06:22:00.786Z,84.40
2022-09-10T06:24:30.949Z,84.30
2022-09-10T06:26:59.608Z,84.00
2022-09-10T06:29:33.317Z,83.90
2022-09-10T06:32:01.734Z,83.60
2022-09-10T06:34:30.317Z,83.30
2022-09-10T06:36:59.918Z,83.00
2022-09-10T06:39:29.548Z,83.30
2022-09-10T06:42:01.579Z,82.40
2022-09-10T06:44:50.518Z,81.90
2022-09-10T06:50:23.236Z,81.50
2022-09-10T06:52:53.364Z,81.30
2022-09-10T06:55:24.351Z,81.20
2022-09-10T06:57:53.072Z,80.00
2022-09-10T07:00:23.395Z,80.40
2022-09-10T07:02:55.003Z,79.40
2022-09-10T07:05:25.283Z,79.10
2022-09-10T07:07:55.608Z,78.90
2022-09-10T07:10:24.527Z,78.40
2022-09-10T07:12:53.628Z,78.10
2022-09-10T07:15:24.882Z,77.90
2022-09-10T07:17:53.465Z,77.60
2022-09-10T07:20:25.916Z,77.40
2022-09-10T07:22:55.366Z,77.10
2022-09-10T07:25:27.182Z,76.80
2022-09-10T07:28:02.633Z,76.40
2022-09-10T07:30:36.082Z,76.00
2022-09-10T07:33:23.041Z,75.60
2022-09-10T07:35:51.705Z,75.20
2022-09-10T07:38:21.039Z,74.70
2022-09-10T07:40:52.586Z,74.50
2022-09-10T07:43:21.153Z,74.30
2022-09-10T07:45:51.259Z,74.20
2022-09-10T07:48:20.033Z,73.90
2022-09-10T07:50:49.452Z,73.60
2022-09-10T07:53:21.105Z,73.40
2022-09-10T07:55:50.030Z,73.20
2022-09-10T07:58:38.577Z,73.10
2022-09-10T08:01:12.952Z,72.90
2022-09-10T08:04:00.306Z,72.70
2022-09-10T08:06:32.384Z,71.90
2022-09-10T08:09:01.566Z,71.20
2022-09-10T08:11:30.249Z,70.40
2022-09-10T08:13:58.830Z,69.80
2022-09-10T08:16:31.032Z,69.00
2022-09-10T08:19:06.135Z,68.40
2022-09-10T08:21:37.188Z,67.40
2022-09-10T08:24:07.829Z,66.90
2022-09-10T08:26:37.186Z,66.60
2022-09-10T08:29:07.690Z,66.20
2022-09-10T08:31:37.804Z,65.60
2022-09-10T08:34:12.457Z,65.30
2022-09-10T08:36:43.665Z,64.70
2022-09-10T08:39:13.276Z,64.10
2022-09-10T08:41:48.827Z,63.30
2022-09-10T08:44:37.704Z,62.40
2022-09-10T08:47:13.911Z,61.60
2022-09-10T08:49:45.562Z,60.90
2022-09-10T08:52:17.550Z,60.50
2022-09-10T08:54:54.223Z,59.90
2022-09-10T08:57:24.947Z,59.20
2022-09-10T08:59:56.723Z,58.00
2022-09-10T09:02:48.415Z,57.60
2022-09-10T09:05:19.757Z,57.30
2022-09-10T09:07:51.815Z,56.50
2022-09-10T09:10:22.039Z,56.10
2022-09-10T09:12:54.802Z,55.30
2022-09-10T09:15:26.484Z,54.50
2022-09-10T09:18:01.926Z,54.20
2022-09-10T09:20:39.155Z,54.00
2022-09-10T09:23:14.349Z,52.80
2022-09-10T09:25:48.255Z,52.40
2022-09-10T09:28:20.657Z,50.90
2022-09-10T09:30:50.929Z,50.30
2022-09-10T09:33:23.993Z,49.30
2022-09-10T09:35:57.831Z,48.70
2022-09-10T09:38:29.374Z,47.40
2022-09-10T09:41:00.490Z,46.30
2022-09-10T09:43:36.826Z,45.60
2022-09-10T09:46:08.046Z,44.70
2022-09-10T09:48:40.559Z,43.00
2022-09-10T09:51:11.799Z,41.90
2022-09-10T09:53:48.116Z,40.50
2022-09-10T09:56:24.077Z,39.70
2022-09-10T09:58:52.711Z,38.00
2022-09-10T10:01:22.471Z,37.30
2022-09-10T10:03:59.021Z,36.80
2022-09-10T10:06:28.578Z,36.00
2022-09-10T10:08:58.581Z,35.40
2022-09-10T10:11:45.589Z,35.20
2022-09-10T10:14:22.061Z,34.50
2022-09-10T10:16:52.591Z,34.60
2022-09-10T10:19:31.405Z,34.10
2022-09-10T10:22:20.042Z,33.30
2022-09-10T10:24:49.411Z,33.00
2022-09-10T10:27:18.972Z,32.70
2022-09-10T10:29:54.700Z,32.30
2022-09-10T10:32:30.369Z,32.00
2022-09-10T10:35:26.332Z,31.60
2022-09-10T10:38:01.123Z,30.80
2022-09-10T10:40:34.007Z,30.10
2022-09-10T10:43:08.175Z,30.20
2022-09-10T10:45:38.867Z,29.80
2022-09-10T10:48:12.575Z,29.90
2022-09-10T10:50:52.794Z,29.80
2022-09-10T10:53:30.219Z,29.00
2022-09-10T10:56:03.345Z,28.00
2022-09-10T10:58:44.525Z,28.00
2022-09-10T11:01:18.934Z,27.30
2022-09-10T11:03:51.692Z,26.90
2022-09-10T11:06:23.658Z,26.10
2022-09-10T11:08:55.372Z,25.90
2022-09-10T11:11:26.325Z,25.40
2022-09-10T11:13:57.236Z,24.90
2022-09-10T11:16:29.417Z,24.80
2022-09-10T11:19:01.785Z,25.10
2022-09-10T11:21:34.843Z,25.10
2022-09-10T11:24:06.389Z,25.40
2022-09-10T11:26:36.644Z,25.10
2022-09-10T11:29:14.560Z,24.60
2022-09-10T11:31:44.499Z,24.60
2022-09-10T11:34:16.899Z,24.50
2022-09-10T11:36:49.983Z,23.90
2022-09-10T11:39:20.876Z,24.10
2022-09-10T11:41:53.257Z,23.90
2022-09-10T11:44:36.835Z,24.20
2022-09-10T11:47:08.609Z,24.60
2022-09-10T11:49:41.045Z,24.90
2022-09-10T11:52:12.276Z,25.20
2022-09-10T11:54:41.153Z,25.20
2022-09-10T11:57:16.481Z,25.30
2022-09-10T11:59:50.987Z,25.30
2022-09-10T12:02:26.710Z,25.70
2022-09-10T12:04:59.251Z,26.00
2022-09-10T12:07:35.448Z,26.40
2022-09-10T12:10:13.519Z,26.50
2022-09-10T12:12:45.179Z,26.90
2022-09-10T12:15:16.585Z,26.90
2022-09-10T12:17:47.699Z,27.60
2022-09-10T12:20:22.100Z,28.00
2022-09-10T12:22:55.491Z,28.30
2022-09-10T12:25:33.597Z,28.90
2022-09-10T12:28:08.209Z,29.30
2022-09-10T12:31:01.333Z,29.50
2022-09-10T12:33:37.590Z,29.70
2022-09-10T12:36:07.135Z,29.90
2022-09-10T12:38:50.337Z,30.10
2022-09-10T12:41:37.432Z,30.40
2022-09-10T12:44:26.534Z,30.40
2022-09-10T12:47:09.910Z,30.50
2022-09-10T12:49:47.238Z,30.20
2022-09-10T12:52:18.230Z,30.20
2022-09-10T12:54:52.938Z,30.00
2022-09-10T12:57:26.517Z,29.60
2022-09-10T13:00:11.600Z,29.40
2022-09-10T13:02:43.489Z,29.10
2022-09-10T13:05:20.957Z,29.00
2022-09-10T13:07:57.827Z,29.10
2022-09-10T13:10:29.631Z,29.10
2022-09-10T13:12:59.818Z,28.90
2022-09-10T13:15:30.210Z,28.70
2022-09-10T13:18:24.204Z,28.60
2022-09-10T13:20:52.953Z,28.40
2022-09-10T13:23:22.351Z,28.60
2022-09-10T13:25:52.579Z,28.10
2022-09-10T13:28:41.015Z,28.00
2022-09-10T13:31:29.554Z,27.70
2022-09-10T13:34:11.395Z,27.80
2022-09-10T13:36:48.358Z,27.70
2022-09-10T13:39:27.600Z,27.90
2022-09-10T13:42:06.385Z,28.00
2022-09-10T13:44:55.888Z,27.90
2022-09-10T13:47:29.080Z,28.20
2022-09-10T13:49:59.502Z,28.00
2022-09-10T13:52:30.715Z,27.80
2022-09-10T13:54:59.746Z,27.70
2022-09-10T13:57:31.439Z,27.90
2022-09-10T14:00:04.418Z,27.90
2022-09-10T14:02:42.981Z,27.80
2022-09-10T14:05:26.133Z,28.20
2022-09-10T14:07:56.061Z,28.30
2022-09-10T14:10:24.831Z,28.30
2022-09-10T14:12:56.076Z,28.20
2022-09-10T14:15:27.126Z,27.90
2022-09-10T14:17:58.786Z,27.80
2022-09-10T14:20:29.022Z,27.90
2022-09-10T14:23:00.327Z,27.60
2022-09-10T14:25:31.335Z,27.60
2022-09-10T14:28:18.329Z,27.30
2022-09-10T14:30:49.159Z,27.60
2022-09-10T14:33:31.129Z,27.60
2022-09-10T14:36:13.947Z,27.80
2022-09-10T14:38:42.728Z,28.00
2022-09-10T14:41:19.100Z,27.80
2022-09-10T14:43:47.974Z,27.80
2022-09-10T14:46:31.329Z,27.60
2022-09-10T14:49:10.098Z,27.70
2022-09-10T14:51:38.866Z,27.90
2022-09-10T14:54:07.915Z,28.10
2022-09-10T14:56:38.439Z,28.40
2022-09-10T14:59:13.471Z,28.60
2022-09-10T15:01:45.858Z,28.50
2022-09-10T15:04:16.726Z,28.80
2022-09-10T15:06:45.494Z,28.80
2022-09-10T15:09:14.256Z,29.30
2022-09-10T15:11:49.688Z,29.70
2022-09-10T15:14:18.465Z,29.30
2022-09-10T15:16:46.939Z,29.30
2022-09-10T15:19:17.162Z,29.50
2022-09-10T15:21:45.911Z,30.20
2022-09-10T15:24:16.169Z,30.10
2022-09-10T15:26:44.859Z,30.80
2022-09-10T15:29:14.510Z,30.60
2022-09-10T15:31:43.785Z,30.70
2022-09-10T15:34:12.745Z,31.20
2022-09-10T15:36:43.220Z,31.20
2022-09-10T15:39:13.308Z,31.80
2022-09-10T15:41:42.905Z,31.90
2022-09-10T15:44:11.420Z,32.10
2022-09-10T15:46:42.039Z,32.10
2022-09-10T15:49:10.670Z,32.70
2022-09-10T15:51:39.428Z,32.50
2022-09-10T15:54:10.868Z,32.20
2022-09-10T15:56:40.110Z,32.20
2022-09-10T15:59:08.851Z,32.30
2022-09-10T16:01:38.463Z,32.50
2022-09-10T16:04:07.362Z,33.00
2022-09-10T16:06:38.104Z,33.40
2022-09-10T16:09:09.255Z,33.70
2022-09-10T16:11:40.370Z,34.60
2022-09-10T16:14:10.424Z,35.20
2022-09-10T16:16:39.314Z,35.70
2022-09-10T16:19:08.167Z,36.30
2022-09-10T16:21:38.003Z,36.70
2022-09-10T16:24:07.457Z,37.70
2022-09-10T16:26:37.770Z,38.30
2022-09-10T16:29:09.111Z,38.90
2022-09-10T16:31:39.342Z,39.40
2022-09-10T16:34:08.984Z,39.80
2022-09-10T16:36:38.306Z,40.50
2022-09-10T16:39:12.269Z,41.10
2022-09-10T16:41:41.159Z,41.30
2022-09-10T16:44:11.384Z,41.80
2022-09-10T16:46:40.300Z,42.30
2022-09-10T16:49:12.685Z,42.70
2022-09-10T16:51:42.438Z,43.20
2022-09-10T16:54:11.724Z,43.60
2022-09-10T16:56:41.061Z,43.80
2022-09-10T16:59:14.303Z,44.10
2022-09-10T17:02:01.323Z,44.30
2022-09-10T17:04:34.247Z,44.50
2022-09-10T17:07:03.090Z,44.90
2022-09-10T17:09:31.652Z,45.10
2022-09-10T17:12:00.820Z,45.20
2022-09-10T17:14:30.854Z,45.10
2022-09-10T17:17:00.261Z,45.30
2022-09-10T17:19:29.495Z,45.50
2022-09-10T17:21:58.113Z,45.80
2022-09-10T17:24:30.782Z,46.40
2022-09-10T17:27:00.459Z,46.80
2022-09-10T17:29:31.174Z,47.20
2022-09-10T17:31:59.679Z,47.60
2022-09-10T17:34:28.786Z,48.00
2022-09-10T17:37:07.633Z,48.10
2022-09-10T17:39:40.124Z,48.50
2022-09-10T17:42:09.186Z,48.90
2022-09-10T17:44:39.671Z,49.20
2022-09-10T17:47:09.773Z,49.30
2022-09-10T17:49:39.224Z,49.40
2022-09-10T17:52:08.364Z,49.40
2022-09-10T17:54:37.275Z,49.30
2022-09-10T17:57:06.477Z,49.10
2022-09-10T17:59:35.308Z,49.20
2022-09-10T18:02:07.218Z,49.30
2022-09-10T18:04:36.234Z,49.80
2022-09-10T18:07:05.133Z,49.70
2022-09-10T18:09:33.981Z,49.80
2022-09-10T18:12:03.158Z,50.00
2022-09-10T18:14:32.294Z,50.30
2022-09-10T18:17:01.147Z,50.40
2022-09-10T18:19:33.291Z,50.60
2022-09-10T18:22:02.785Z,51.00
2022-09-10T18:24:34.960Z,51.60
2022-09-10T18:27:05.608Z,51.30
2022-09-10T18:29:35.163Z,51.50
2022-09-10T18:32:04.649Z,51.80
2022-09-10T18:34:35.005Z,52.00
2022-09-10T18:37:04.851Z,52.20
2022-09-10T18:39:34.385Z,52.30
2022-09-10T18:42:03.667Z,52.50
2022-09-10T18:44:36.701Z,52.60
2022-09-10T18:47:17.898Z,52.80
2022-09-10T18:49:59.463Z,53.00
2022-09-10T18:52:29.221Z,53.10
2022-09-10T18:54:58.502Z,53.40
2022-09-10T18:57:27.774Z,53.60
2022-09-10T18:59:57.906Z,53.80
2022-09-10T19:02:29.993Z,54.10
2022-09-10T19:05:18.058Z,54.30
2022-09-10T19:07:52.806Z,54.70
2022-09-10T19:10:24.879Z,55.00
2022-09-10T19:12:53.904Z,55.30
2022-09-10T19:15:23.153Z,55.60
2022-09-10T19:17:52.063Z,55.90
2022-09-10T19:20:23.202Z,56.10
2022-09-10T19:22:52.436Z,56.40
2022-09-10T19:25:22.969Z,56.50
2022-09-10T19:27:53.098Z,56.60
2022-09-10T19:30:22.008Z,56.70
2022-09-10T19:32:51.021Z,57.10
2022-09-10T19:35:21.644Z,57.20
2022-09-10T19:37:50.560Z,57.50
2022-09-10T19:40:19.435Z,57.60
2022-09-10T19:42:48.682Z,57.70
2022-09-10T19:45:18.020Z,57.70
2022-09-10T19:47:47.266Z,58.00
2022-09-10T19:50:18.343Z,58.20
2022-09-10T19:52:52.052Z,58.40
2022-09-10T19:55:21.366Z,58.60
2022-09-10T19:57:50.953Z,58.70
2022-09-10T20:00:42.953Z,58.90
2022-09-10T20:03:10.274Z,59.10
2022-09-10T20:05:39.798Z,59.40
2022-09-10T20:08:11.027Z,59.60
2022-09-10T20:10:52.136Z,60.00
2022-09-10T20:13:21.290Z,60.40
2022-09-10T20:15:50.456Z,60.50
2022-09-10T20:18:19.437Z,60.70
2022-09-10T20:20:48.216Z,61.00
2022-09-10T20:23:18.806Z,61.20
2022-09-10T20:25:47.771Z,61.50
2022-09-10T20:28:16.818Z,61.80
2022-09-10T20:30:45.975Z,62.20
2022-09-10T20:33:14.892Z,62.60
2022-09-10T20:35:46.787Z,62.90
2022-09-10T20:38:18.041Z,63.00
2022-09-10T20:40:47.455Z,63.40
2022-09-10T20:43:16.381Z,63.40
2022-09-10T20:45:46.315Z,63.60
2022-09-10T20:48:15.247Z,63.70
2022-09-10T20:50:53.551Z,63.90
2022-09-10T20:53:24.092Z,63.80
2022-09-10T20:55:53.386Z,63.50
2022-09-10T20:58:24.403Z,63.40
2022-09-10T21:00:53.509Z,63.30
2022-09-10T21:03:23.678Z,63.60
2022-09-10T21:05:52.677Z,63.30
2022-09-10T21:08:24.051Z,63.60
2022-09-10T21:10:53.272Z,63.80
2022-09-10T21:13:25.026Z,63.90
2022-09-10T21:15:58.429Z,63.80
2022-09-10T21:18:34.287Z,63.90
2022-09-10T21:21:11.801Z,63.60
2022-09-10T21:23:47.002Z,63.30
2022-09-10T21:26:17.633Z,63.10
2022-09-10T21:28:46.835Z,62.90
2022-09-10T21:31:16.352Z,62.70
2022-09-10T21:33:46.437Z,62.60
2022-09-10T21:36:16.948Z,62.40
2022-09-10T21:38:50.345Z,62.30
2022-09-10T21:41:39.688Z,62.30
2022-09-10T21:44:12.492Z,62.40
2022-09-10T21:46:41.934Z,62.40
2022-09-10T21:49:11.063Z,62.40
2022-09-10T21:51:40.093Z,62.70
2022-09-10T21:54:15.081Z,63.00
2022-09-10T21:56:43.974Z,63.20
2022-09-10T21:59:16.679Z,63.20
2022-09-10T22:01:47.233Z,63.60
2022-09-10T22:04:22.116Z,63.90
2022-09-10T22:06:52.077Z,63.90
2022-09-10T22:09:23.200Z,63.90
2022-09-10T22:11:54.478Z,63.90
2022-09-10T22:14:25.253Z,64.10
2022-09-10T22:16:55.225Z,64.40
2022-09-10T22:19:26.129Z,64.60
2022-09-10T22:22:13.901Z,65.00
2022-09-10T22:24:48.625Z,65.20
2022-09-10T22:27:18.058Z,65.40
2022-09-10T22:29:47.211Z,65.70
2022-09-10T22:32:16.063Z,65.90
2022-09-10T22:34:46.315Z,66.40
2022-09-10T22:37:15.425Z,66.60
2022-09-10T22:39:45.761Z,66.90
2022-09-10T22:42:15.386Z,67.40
2022-09-10T22:44:44.348Z,67.20
2022-09-10T22:47:13.223Z,67.30
2022-09-10T22:49:45.451Z,67.50
2022-09-10T22:52:15.237Z,67.30
2022-09-10T22:54:45.678Z,67.10
2022-09-10T22:57:14.586Z,67.30
2022-09-10T22:59:43.893Z,67.10
2022-09-10T23:02:12.870Z,67.10
2022-09-10T23:04:43.021Z,66.90
2022-09-10T23:07:12.733Z,66.80
2022-09-10T23:09:41.515Z,66.90
2022-09-10T23:12:12.293Z,67.00
2022-09-10T23:14:41.180Z,66.90
2022-09-10T23:17:10.173Z,67.00
2022-09-10T23:19:39.047Z,67.10
2022-09-10T23:22:26.720Z,67.20
2022-09-10T23:24:55.690Z,67.30
2022-09-10T23:27:26.148Z,67.70
2022-09-10T23:29:55.078Z,68.00
2022-09-10T23:32:23.826Z,67.90
2022-09-10T23:34:52.857Z,68.00
2022-09-10T23:37:21.867Z,68.20
2022-09-10T23:39:51.236Z,68.40
2022-09-10T23:42:20.494Z,68.60
2022-09-10T23:44:50.985Z,68.70
2022-09-10T23:47:20.037Z,69.00
2022-09-10T23:49:49.043Z,69.20
2022-09-10T23:52:17.939Z,69.50
2022-09-10T23:54:47.567Z,69.70
2022-09-10T23:57:17.670Z,69.80
2022-09-10T23:59:46.534Z,69.80
